Time;durP1;ratioP1;P1;durP2;ratioP2;P2;SDS_P1;SDS_P2;PMS_P1;PMS_P2;Temp;Humidity;BMP_temperature;BMP_pressure;BME280_temperature;BME280_humidity;BME280_pressure;Samples;Min_cycle;Max_cycle;Signal;HPM_P1;HPM_P2
2021/08/31 00:01:11;;;;;;;13.43;8.53;;;16.70;99.90;;;;;;4992384;28;20469;-51
2021/08/31 00:03:37;;;;;;;10.33;7.93;;;16.70;99.90;;;;;;4992086;28;20423;-51
2021/08/31 00:06:04;;;;;;;10.33;7.93;;;16.60;99.90;;;;;;4992221;28;20997;-51
2021/08/31 00:08:30;;;;;;;9.70;7.20;;;16.60;99.90;;;;;;4991936;28;20445;-51
2021/08/31 00:10:58;;;;;;;11.60;8.27;;;16.60;99.90;;;;;;4992207;28;20431;-51
2021/08/31 00:13:25;;;;;;;16.13;7.70;;;16.60;99.90;;;;;;4992030;28;20480;-51
2021/08/31 00:15:51;;;;;;;12.53;8.37;;;16.60;99.90;;;;;;4991965;28;20450;-52
2021/08/31 00:18:18;;;;;;;9.40;7.90;;;16.60;99.90;;;;;;4991843;28;20445;-52
2021/08/31 00:20:44;;;;;;;11.67;7.00;;;16.60;99.90;;;;;;4992205;28;20973;-51
2021/08/31 00:23:12;;;;;;;10.53;7.90;;;16.60;99.90;;;;;;4991947;28;20688;-51
2021/08/31 00:25:38;;;;;;;10.70;8.20;;;16.60;99.90;;;;;;5015791;23;20485;-50
2021/08/31 00:28:06;;;;;;;11.77;8.10;;;16.60;99.90;;;;;;5011171;28;20944;-51
2021/08/31 00:30:33;;;;;;;9.60;8.00;;;16.60;99.90;;;;;;5011378;28;20436;-51
2021/08/31 00:33:00;;;;;;;10.03;8.10;;;16.50;99.90;;;;;;5011383;28;20442;-51
2021/08/31 00:35:26;;;;;;;10.80;8.93;;;16.50;99.90;;;;;;5011336;28;20444;-51
2021/08/31 00:37:53;;;;;;;11.57;7.60;;;16.50;99.90;;;;;;5010936;28;20441;-51
2021/08/31 00:40:19;;;;;;;9.50;8.60;;;16.50;99.90;;;;;;5011403;28;20436;-50
2021/08/31 00:42:46;;;;;;;13.63;8.00;;;16.50;99.90;;;;;;5011324;28;20434;-50
2021/08/31 00:45:14;;;;;;;12.50;8.17;;;16.30;99.90;;;;;;5011204;28;20774;-51
2021/08/31 00:47:40;;;;;;;10.90;8.50;;;16.50;99.90;;;;;;5010705;28;20453;-50
2021/08/31 00:50:07;;;;;;;9.43;7.77;;;16.50;99.90;;;;;;5013859;28;20437;-50
2021/08/31 00:52:34;;;;;;;12.67;8.83;;;16.50;99.90;;;;;;5014661;28;20432;-51
2021/08/31 00:55:01;;;;;;;12.80;8.90;;;16.40;99.90;;;;;;5014525;28;20460;-50
2021/08/31 00:57:28;;;;;;;8.50;7.47;;;16.20;99.90;;;;;;5014511;28;20982;-50
2021/08/31 00:59:55;;;;;;;13.50;8.20;;;16.80;99.90;;;;;;5014262;28;20444;-50
2021/08/31 01:02:22;;;;;;;10.87;8.57;;;16.40;99.90;;;;;;5014358;28;20436;-51
2021/08/31 01:04:49;;;;;;;12.93;8.20;;;16.40;99.90;;;;;;5014417;28;20460;-51
2021/08/31 01:07:16;;;;;;;8.40;6.93;;;16.40;99.90;;;;;;5014283;28;20449;-51
2021/08/31 01:09:44;;;;;;;10.80;7.90;;;16.50;99.90;;;;;;5013912;28;20812;-51
2021/08/31 01:12:12;;;;;;;11.90;7.43;;;16.40;99.90;;;;;;5014332;28;20433;-51
2021/08/31 01:14:39;;;;;;;8.20;7.27;;;16.40;99.90;;;;;;5014286;28;20458;-51
2021/08/31 01:17:06;;;;;;;9.33;8.23;;;16.40;99.90;;;;;;5014080;28;20475;-51
2021/08/31 01:19:34;;;;;;;12.43;7.73;;;16.40;99.90;;;;;;5012510;28;20449;-51
2021/08/31 01:22:03;;;;;;;15.00;8.77;;;16.40;99.90;;;;;;5014112;28;20995;-51
2021/08/31 01:24:31;;;;;;;13.53;8.27;;;16.40;99.90;;;;;;5014006;28;20422;-51
2021/08/31 01:27:00;;;;;;;12.37;9.13;;;16.80;99.90;;;;;;5013802;28;20472;-51
2021/08/31 01:29:27;;;;;;;9.40;8.40;;;16.40;99.90;;;;;;5013563;28;20437;-51
2021/08/31 01:31:54;;;;;;;11.73;8.60;;;16.40;99.90;;;;;;5013820;28;20435;-51
2021/08/31 01:34:20;;;;;;;9.70;8.37;;;16.40;99.90;;;;;;5013782;28;20947;-51
2021/08/31 01:36:47;;;;;;;11.87;8.13;;;16.40;99.90;;;;;;5013841;28;20972;-50
2021/08/31 01:39:14;;;;;;;8.40;7.37;;;16.60;99.90;;;;;;5013830;28;20444;-50
2021/08/31 01:41:40;;;;;;;11.50;8.37;;;16.40;99.90;;;;;;5013696;28;20443;-50
2021/08/31 01:44:08;;;;;;;11.73;8.03;;;16.30;99.90;;;;;;5013760;28;20448;-50
2021/08/31 01:46:35;;;;;;;9.57;8.33;;;16.40;99.90;;;;;;5013555;28;20848;-51
2021/08/31 01:49:01;;;;;;;10.03;8.33;;;16.40;99.90;;;;;;5013235;28;20444;-51
2021/08/31 01:51:28;;;;;;;9.83;8.10;;;16.40;99.90;;;;;;5013646;28;20957;-51
2021/08/31 01:53:55;;;;;;;9.40;8.27;;;16.40;99.90;;;;;;5013368;28;20485;-50
2021/08/31 01:56:22;;;;;;;11.93;7.80;;;16.40;99.90;;;;;;5013525;28;20438;-51
2021/08/31 01:58:48;;;;;;;10.73;8.43;;;16.40;99.90;;;;;;5013017;28;20453;-50
2021/08/31 02:01:16;;;;;;;13.33;8.33;;;16.30;99.90;;;;;;5012981;28;20438;-50
2021/08/31 02:03:43;;;;;;;9.03;8.13;;;16.30;99.90;;;;;;5013403;28;20428;-50
2021/08/31 02:06:09;;;;;;;12.57;9.23;;;16.30;99.90;;;;;;5013292;28;20990;-50
2021/08/31 02:08:36;;;;;;;11.80;9.27;;;16.30;99.90;;;;;;5013000;28;20819;-50
2021/08/31 02:11:03;;;;;;;10.60;9.50;;;16.30;99.90;;;;;;5013231;28;20432;-51
2021/08/31 02:13:29;;;;;;;12.23;8.70;;;16.30;99.90;;;;;;5013101;28;20450;-50
2021/08/31 02:15:56;;;;;;;15.57;9.70;;;16.30;99.90;;;;;;5012992;28;20966;-50
2021/08/31 02:18:24;;;;;;;9.63;8.63;;;16.20;99.90;;;;;;5012745;28;20448;-50
2021/08/31 02:20:51;;;;;;;10.33;8.97;;;16.30;99.90;;;;;;5013048;28;20409;-50
2021/08/31 02:23:17;;;;;;;12.53;9.57;;;16.40;99.90;;;;;;5012884;28;20448;-50
2021/08/31 02:25:44;;;;;;;11.50;9.83;;;16.20;99.90;;;;;;5012929;28;20516;-50
2021/08/31 02:28:10;;;;;;;12.70;10.10;;;16.20;99.90;;;;;;5012549;28;20448;-50
2021/08/31 02:30:38;;;;;;;14.17;9.90;;;16.30;99.90;;;;;;5013022;28;20429;-50
2021/08/31 02:33:04;;;;;;;13.27;10.13;;;16.50;99.90;;;;;;5012838;28;20437;-51
2021/08/31 02:35:33;;;;;;;14.37;10.73;;;16.20;99.90;;;;;;5012542;28;20455;-50
2021/08/31 02:38:00;;;;;;;11.00;9.23;;;16.20;99.90;;;;;;5012331;28;20451;-51
2021/08/31 02:40:26;;;;;;;13.03;9.37;;;16.20;99.90;;;;;;5012734;28;20452;-50
2021/08/31 02:42:53;;;;;;;10.47;9.17;;;16.30;99.90;;;;;;5012546;28;20508;-50
2021/08/31 02:45:19;;;;;;;10.20;8.93;;;16.20;99.90;;;;;;5012454;28;20415;-50
2021/08/31 02:47:46;;;;;;;12.43;9.70;;;16.20;99.90;;;;;;5012028;28;20969;-50
2021/08/31 02:50:13;;;;;;;10.53;9.07;;;16.20;99.90;;;;;;5012495;28;20475;-51
2021/08/31 02:52:41;;;;;;;11.30;10.20;;;16.20;99.90;;;;;;5012380;28;20776;-50
2021/08/31 02:55:08;;;;;;;11.60;9.03;;;16.20;99.90;;;;;;5012347;28;20473;-51
2021/08/31 02:57:35;;;;;;;14.17;10.03;;;16.20;99.90;;;;;;5012217;28;21195;-51
2021/08/31 03:00:01;;;;;;;9.57;8.63;;;16.40;99.90;;;;;;5012155;28;20770;-51
2021/08/31 03:02:28;;;;;;;13.97;9.47;;;16.20;99.90;;;;;;5012487;28;20487;-51
2021/08/31 03:04:55;;;;;;;12.27;8.27;;;16.30;99.90;;;;;;5012184;28;20486;-51
2021/08/31 03:07:22;;;;;;;15.13;9.20;;;16.30;99.90;;;;;;5012201;28;20453;-51
2021/08/31 03:09:50;;;;;;;11.40;9.30;;;16.20;99.90;;;;;;5011885;28;20448;-50
2021/08/31 03:12:17;;;;;;;11.57;9.40;;;16.20;99.90;;;;;;5010219;28;20455;-51
2021/08/31 03:14:43;;;;;;;10.00;8.60;;;16.30;99.90;;;;;;5012096;28;20480;-51
2021/08/31 03:17:10;;;;;;;10.53;8.80;;;16.20;99.90;;;;;;5011943;28;21003;-50
2021/08/31 03:19:39;;;;;;;10.97;8.90;;;16.20;99.90;;;;;;5011724;28;20441;-51
2021/08/31 03:22:09;;;;;;;12.43;8.77;;;16.20;99.90;;;;;;5012111;28;20440;-50
2021/08/31 03:24:37;;;;;;;12.70;9.47;;;16.20;99.90;;;;;;5011912;28;20442;-52
2021/08/31 03:27:07;;;;;;;11.77;9.63;;;16.20;99.90;;;;;;5011921;28;20467;-50
2021/08/31 03:29:34;;;;;;;12.53;8.70;;;16.20;99.90;;;;;;5011496;28;20436;-50
2021/08/31 03:32:00;;;;;;;11.13;8.83;;;16.10;99.90;;;;;;5011822;28;20441;-50
2021/08/31 03:34:27;;;;;;;9.70;8.70;;;16.10;99.90;;;;;;5011680;28;20896;-51
2021/08/31 03:36:54;;;;;;;10.10;8.80;;;16.10;99.90;;;;;;5011656;28;20461;-50
2021/08/31 03:39:20;;;;;;;9.93;8.93;;;16.20;99.90;;;;;;5011302;28;20456;-51
2021/08/31 03:41:47;;;;;;;14.20;10.50;;;16.30;99.90;;;;;;5011768;28;20456;-51
2021/08/31 03:44:15;;;;;;;10.50;9.47;;;16.20;99.90;;;;;;5011680;28;20796;-50
2021/08/31 03:46:41;;;;;;;12.07;9.73;;;16.10;99.90;;;;;;5010361;28;20487;-50
2021/08/31 03:49:08;;;;;;;12.07;10.33;;;16.50;99.90;;;;;;5011138;28;20441;-51
2021/08/31 03:51:35;;;;;;;10.70;9.57;;;16.00;99.90;;;;;;5011456;28;20810;-51
2021/08/31 03:54:01;;;;;;;10.50;9.03;;;16.20;99.90;;;;;;5011391;28;20436;-50
2021/08/31 03:56:28;;;;;;;12.23;9.93;;;16.10;99.90;;;;;;5011577;28;20431;-50
2021/08/31 03:58:54;;;;;;;10.77;8.73;;;16.10;99.90;;;;;;5011127;28;20441;-51
2021/08/31 04:01:22;;;;;;;11.33;9.67;;;16.10;99.90;;;;;;5011562;28;20447;-51
2021/08/31 04:03:49;;;;;;;11.27;9.67;;;16.10;99.90;;;;;;5011580;28;20449;-52
2021/08/31 04:06:15;;;;;;;10.83;9.63;;;16.10;99.90;;;;;;5011263;28;20431;-51
2021/08/31 04:08:42;;;;;;;10.07;9.00;;;16.00;99.90;;;;;;5011110;28;20814;-50
2021/08/31 04:11:08;;;;;;;11.87;9.23;;;16.10;99.90;;;;;;5011506;28;20447;-51
2021/08/31 04:13:35;;;;;;;10.33;9.17;;;16.10;99.90;;;;;;5011434;28;20440;-50
2021/08/31 04:16:02;;;;;;;10.63;9.57;;;16.40;99.90;;;;;;5011222;28;20503;-50
2021/08/31 04:18:29;;;;;;;11.97;9.73;;;16.00;99.90;;;;;;5011233;28;20759;-51
2021/08/31 04:20:56;;;;;;;12.70;9.40;;;16.00;99.90;;;;;;5011284;28;20436;-51
2021/08/31 04:23:23;;;;;;;12.53;10.00;;;16.00;99.90;;;;;;5013065;28;20436;-50
2021/08/31 04:25:49;;;;;;;10.67;9.67;;;16.00;99.90;;;;;;5014845;28;20494;-52
2021/08/31 04:28:16;;;;;;;10.57;9.47;;;16.50;99.90;;;;;;5014722;28;20508;-50
2021/08/31 04:30:42;;;;;;;10.97;9.80;;;16.00;99.90;;;;;;5014893;28;20535;-50
2021/08/31 04:33:09;;;;;;;11.10;9.47;;;16.00;99.90;;;;;;5014829;28;20503;-52
2021/08/31 04:35:38;;;;;;;12.63;9.90;;;16.00;99.90;;;;;;5014483;28;21011;-50
2021/08/31 04:38:05;;;;;;;10.30;8.60;;;16.00;99.90;;;;;;5014482;28;20408;-50
2021/08/31 04:40:32;;;;;;;12.60;8.90;;;16.00;99.90;;;;;;5014634;28;20447;-52
2021/08/31 04:42:58;;;;;;;10.90;9.07;;;16.30;99.90;;;;;;5014821;28;20471;-50
2021/08/31 04:45:25;;;;;;;10.20;9.20;;;16.00;99.90;;;;;;5014400;28;20812;-50
2021/08/31 04:47:51;;;;;;;10.30;9.30;;;16.00;99.90;;;;;;5014288;28;20451;-52
2021/08/31 04:50:18;;;;;;;10.50;9.43;;;16.00;99.90;;;;;;5014608;28;20913;-50
2021/08/31 04:52:46;;;;;;;11.37;9.67;;;16.00;99.90;;;;;;5014463;28;21054;-50
2021/08/31 04:55:13;;;;;;;16.53;9.90;;;16.00;99.90;;;;;;5014205;28;20831;-50
2021/08/31 04:57:40;;;;;;;10.40;9.10;;;16.00;99.90;;;;;;5013713;28;20452;-51
2021/08/31 05:00:07;;;;;;;11.93;9.47;;;16.00;99.90;;;;;;5014039;28;20930;-51
2021/08/31 05:02:36;;;;;;;13.93;8.87;;;16.00;99.90;;;;;;5014215;28;20449;-50
2021/08/31 05:05:03;;;;;;;13.73;9.50;;;16.00;99.90;;;;;;5014181;28;20442;-50
2021/08/31 05:07:29;;;;;;;14.30;9.97;;;16.00;99.90;;;;;;5013840;28;20459;-50
2021/08/31 05:09:57;;;;;;;12.43;9.67;;;16.00;99.90;;;;;;5013884;28;20436;-52
2021/08/31 05:12:25;;;;;;;10.83;9.10;;;16.00;99.90;;;;;;5013955;28;20453;-51
2021/08/31 05:14:51;;;;;;;11.93;9.03;;;16.00;99.90;;;;;;5014041;28;20474;-51
2021/08/31 05:17:18;;;;;;;9.70;8.70;;;16.00;99.90;;;;;;5013510;28;20445;-52
2021/08/31 05:19:45;;;;;;;10.20;8.47;;;16.00;99.90;;;;;;5013559;28;20432;-50
2021/08/31 05:22:12;;;;;;;9.77;8.63;;;16.00;99.90;;;;;;5013950;28;20945;-51
2021/08/31 05:24:38;;;;;;;11.10;9.53;;;16.00;99.90;;;;;;5013425;28;20448;-52
2021/08/31 05:27:07;;;;;;;11.37;9.63;;;16.00;99.90;;;;;;5013026;28;20508;-51
2021/08/31 05:29:34;;;;;;;11.90;10.70;;;15.90;99.90;;;;;;5012507;28;20440;-51
2021/08/31 05:32:01;;;;;;;10.93;8.57;;;15.90;99.90;;;;;;5013440;28;20432;-51
2021/08/31 05:34:28;;;;;;;12.17;9.50;;;15.90;99.90;;;;;;5012144;28;20949;-51
2021/08/31 05:36:55;;;;;;;12.00;9.63;;;15.90;99.90;;;;;;5012711;28;20457;-51
2021/08/31 05:39:21;;;;;;;12.60;9.30;;;15.90;99.90;;;;;;5012022;28;20906;-50
2021/08/31 05:41:48;;;;;;;9.77;8.73;;;15.90;99.90;;;;;;5012868;28;20437;-51
2021/08/31 05:44:16;;;;;;;10.27;8.77;;;15.90;99.90;;;;;;5012638;28;20440;-51
2021/08/31 05:46:43;;;;;;;12.00;10.10;;;15.90;99.90;;;;;;5011893;28;20954;-52
2021/08/31 05:49:09;;;;;;;10.57;8.33;;;15.90;99.90;;;;;;5011277;28;20444;-51
2021/08/31 05:51:36;;;;;;;11.00;9.77;;;16.20;99.90;;;;;;5011509;28;20892;-51
2021/08/31 05:54:03;;;;;;;12.93;8.87;;;16.00;99.90;;;;;;5012864;28;20463;-52
2021/08/31 05:56:29;;;;;;;9.60;8.63;;;16.00;99.90;;;;;;5011944;28;20957;-52
2021/08/31 05:58:56;;;;;;;12.50;8.67;;;16.00;99.90;;;;;;5012199;28;20886;-51
2021/08/31 06:01:24;;;;;;;13.60;9.87;;;16.00;99.90;;;;;;5012711;28;20436;-51
2021/08/31 06:03:50;;;;;;;11.07;9.50;;;16.00;99.90;;;;;;5012386;28;20447;-52
2021/08/31 06:06:17;;;;;;;11.97;8.50;;;16.20;99.90;;;;;;5012904;28;20480;-51
2021/08/31 06:08:44;;;;;;;9.97;8.97;;;16.00;99.90;;;;;;5012547;28;20440;-51
2021/08/31 06:11:11;;;;;;;9.60;8.40;;;16.00;99.90;;;;;;5012836;28;20441;-52
2021/08/31 06:13:38;;;;;;;13.13;8.17;;;16.00;99.90;;;;;;5012564;28;20532;-53
2021/08/31 06:16:05;;;;;;;12.00;8.90;;;16.00;99.90;;;;;;5012681;28;20887;-51
2021/08/31 06:18:33;;;;;;;9.40;8.40;;;16.10;99.90;;;;;;5012466;28;20435;-51
2021/08/31 06:21:00;;;;;;;8.47;7.63;;;15.70;99.90;;;;;;5013356;28;20783;-52
2021/08/31 06:23:27;;;;;;;9.77;8.80;;;16.10;99.90;;;;;;5012573;28;20440;-52
2021/08/31 06:25:53;;;;;;;9.57;8.57;;;16.10;99.90;;;;;;5012776;28;20487;-51
2021/08/31 06:28:20;;;;;;;12.80;9.90;;;16.00;99.90;;;;;;5012013;28;20784;-53
2021/08/31 06:30:46;;;;;;;9.90;8.90;;;16.10;99.90;;;;;;5012614;28;20445;-52
2021/08/31 06:33:13;;;;;;;10.63;9.53;;;16.10;99.90;;;;;;5012363;28;20441;-51
2021/08/31 06:35:41;;;;;;;10.70;9.20;;;16.10;99.90;;;;;;5012127;28;20451;-51
2021/08/31 06:38:08;;;;;;;13.73;10.00;;;16.10;99.90;;;;;;5012216;28;20428;-51
2021/08/31 06:40:34;;;;;;;12.00;8.77;;;16.10;99.90;;;;;;5011827;28;20951;-52
2021/08/31 06:43:01;;;;;;;11.30;8.80;;;16.20;99.90;;;;;;5011845;28;20443;-51
2021/08/31 06:45:28;;;;;;;11.17;9.07;;;16.10;99.90;;;;;;5011694;28;20947;-52
2021/08/31 06:47:55;;;;;;;10.23;9.13;;;16.20;99.90;;;;;;5010872;28;20792;-51
2021/08/31 06:50:21;;;;;;;9.70;8.73;;;16.20;99.90;;;;;;5012057;28;20866;-52
2021/08/31 06:52:50;;;;;;;10.63;9.60;;;16.20;99.90;;;;;;5012109;28;20996;-51
2021/08/31 06:55:16;;;;;;;11.00;9.60;;;16.20;99.90;;;;;;5011778;28;21008;-52
2021/08/31 06:57:43;;;;;;;13.60;10.67;;;16.30;99.90;;;;;;5011033;28;20455;-52
2021/08/31 07:00:11;;;;;;;12.57;9.07;;;16.30;99.90;;;;;;5011418;28;20446;-52
2021/08/31 07:02:37;;;;;;;10.67;7.90;;;16.30;99.90;;;;;;5011490;28;20429;-51
2021/08/31 07:05:05;;;;;;;12.53;8.60;;;16.30;99.90;;;;;;5011652;28;20640;-51
2021/08/31 07:07:32;;;;;;;10.43;7.70;;;16.20;99.90;;;;;;5011697;28;20457;-52
2021/08/31 07:10:00;;;;;;;11.33;8.40;;;16.60;99.90;;;;;;5011590;28;20442;-51
2021/08/31 07:12:27;;;;;;;14.03;8.37;;;16.60;99.90;;;;;;5011778;28;20442;-52
2021/08/31 07:14:54;;;;;;;10.20;7.77;;;16.70;99.90;;;;;;5011540;28;20510;-52
2021/08/31 07:17:21;;;;;;;12.03;9.07;;;16.80;99.90;;;;;;5011537;28;20841;-51
2021/08/31 07:19:48;;;;;;;11.33;8.37;;;16.80;99.90;;;;;;5011266;28;20930;-52
2021/08/31 07:22:17;;;;;;;8.20;7.40;;;16.90;99.90;;;;;;5011539;28;20404;-51
2021/08/31 07:24:43;;;;;;;10.00;8.40;;;16.90;99.90;;;;;;5011777;28;20435;-51
2021/08/31 07:27:12;;;;;;;11.93;7.47;;;17.00;99.90;;;;;;5011290;28;20475;-52
2021/08/31 07:29:39;;;;;;;9.90;7.90;;;17.00;99.90;;;;;;5011198;28;20453;-52
2021/08/31 07:32:06;;;;;;;9.80;8.33;;;17.10;99.90;;;;;;5010583;28;20453;-53
2021/08/31 07:34:33;;;;;;;7.67;6.97;;;17.10;99.90;;;;;;5012020;28;20804;-51
2021/08/31 07:36:59;;;;;;;10.53;7.80;;;17.10;99.90;;;;;;5010908;28;20513;-51
2021/08/31 07:39:26;;;;;;;9.97;8.63;;;17.10;99.90;;;;;;5011302;28;20437;-52
2021/08/31 07:41:53;;;;;;;11.83;8.60;;;17.20;99.90;;;;;;5011243;28;20460;-52
2021/08/31 07:44:20;;;;;;;14.90;8.03;;;17.20;99.90;;;;;;5011914;28;20540;-51
2021/08/31 07:46:47;;;;;;;8.53;7.53;;;17.40;99.90;;;;;;5011341;28;20892;-52
2021/08/31 07:49:14;;;;;;;8.77;7.70;;;17.50;99.90;;;;;;5010237;28;20529;-52
2021/08/31 07:51:42;;;;;;;8.83;7.80;;;17.60;99.90;;;;;;5011267;28;20445;-51
2021/08/31 07:54:09;;;;;;;12.13;7.73;;;17.70;99.90;;;;;;5011310;28;20430;-52
2021/08/31 07:56:36;;;;;;;7.93;6.83;;;17.90;99.90;;;;;;5011052;28;20868;-52
2021/08/31 07:59:03;;;;;;;8.30;6.50;;;18.00;99.90;;;;;;5014364;28;20462;-52
2021/08/31 08:01:31;;;;;;;8.73;7.73;;;18.10;99.90;;;;;;5015452;28;20971;-52
2021/08/31 08:03:58;;;;;;;9.27;7.30;;;18.20;99.90;;;;;;5015225;28;20819;-52
2021/08/31 08:06:25;;;;;;;8.03;7.03;;;18.20;99.90;;;;;;5015639;28;20454;-52
2021/08/31 08:08:54;;;;;;;8.50;7.40;;;18.20;99.90;;;;;;5014809;28;20889;-52
2021/08/31 08:11:20;;;;;;;9.03;8.13;;;18.20;99.90;;;;;;5015347;28;20489;-53
2021/08/31 08:13:47;;;;;;;8.80;6.90;;;18.30;99.90;;;;;;5015366;28;20451;-52
2021/08/31 08:16:14;;;;;;;7.60;6.70;;;18.20;99.90;;;;;;5015340;28;20495;-52
2021/08/31 08:18:42;;;;;;;8.40;7.53;;;18.40;99.90;;;;;;5014695;28;20443;-52
2021/08/31 08:21:08;;;;;;;8.87;7.43;;;18.40;99.90;;;;;;5015222;28;20891;-53
2021/08/31 08:23:35;;;;;;;8.57;7.07;;;18.50;99.90;;;;;;5015239;28;20848;-52
2021/08/31 08:26:02;;;;;;;7.50;6.70;;;18.50;99.90;;;;;;5014986;28;20942;-52
2021/08/31 08:28:28;;;;;;;8.40;7.57;;;18.50;99.90;;;;;;5013304;28;20453;-52
2021/08/31 08:30:55;;;;;;;8.10;7.23;;;18.40;99.90;;;;;;5015129;28;20406;-52
2021/08/31 08:33:22;;;;;;;7.80;7.00;;;18.40;99.90;;;;;;5015084;28;20449;-52
2021/08/31 08:35:50;;;;;;;7.77;6.97;;;18.50;99.90;;;;;;5014919;28;20517;-52
2021/08/31 08:38:17;;;;;;;8.57;7.67;;;18.50;99.90;;;;;;5014616;28;20796;-50
2021/08/31 08:40:44;;;;;;;10.20;6.73;;;18.50;99.90;;;;;;5014694;28;20443;-51
2021/08/31 08:43:13;;;;;;;9.20;7.50;;;18.60;99.90;;;;;;5014714;28;20481;-51
2021/08/31 08:45:45;;;;;;;7.57;6.77;;;18.70;99.90;;;;;;5014364;28;20443;-52
2021/08/31 08:48:18;;;;;;;10.63;7.77;;;18.70;99.90;;;;;;5014125;28;20478;-53
2021/08/31 08:50:45;;;;;;;7.90;7.10;;;18.80;99.90;;;;;;5014329;28;20475;-51
2021/08/31 08:53:14;;;;;;;9.03;6.77;;;18.80;99.90;;;;;;5014736;28;20485;-51
2021/08/31 08:55:40;;;;;;;8.30;7.03;;;18.80;99.90;;;;;;5014199;28;20495;-51
2021/08/31 08:58:07;;;;;;;7.47;6.43;;;18.90;99.90;;;;;;5013992;28;20440;-52
2021/08/31 09:00:55;;;;;;;8.13;6.03;;;19.00;99.90;;;;;;5014288;28;20462;-51
2021/08/31 09:03:23;;;;;;;9.20;7.60;;;19.00;99.90;;;;;;5014077;28;20452;-51
2021/08/31 09:06:03;;;;;;;8.03;6.83;;;19.00;99.90;;;;;;5012705;28;20570;-51
2021/08/31 09:08:31;;;;;;;8.80;7.90;;;19.10;99.90;;;;;;5013895;28;20445;-52
2021/08/31 09:10:58;;;;;;;10.37;7.17;;;19.10;99.90;;;;;;5013178;28;20959;-51
2021/08/31 09:13:25;;;;;;;8.67;7.60;;;19.10;99.90;;;;;;5014184;28;20519;-51
2021/08/31 09:15:52;;;;;;;7.97;7.17;;;19.20;99.90;;;;;;5013785;28;20455;-51
2021/08/31 09:18:21;;;;;;;7.93;7.13;;;19.30;99.90;;;;;;5014032;28;20432;-51
2021/08/31 09:21:03;;;;;;;9.00;7.10;;;19.30;99.90;;;;;;5013805;28;20880;-53
2021/08/31 09:23:34;;;;;;;10.33;7.50;;;19.30;99.90;;;;;;5013798;28;20431;-51
2021/08/31 09:26:06;;;;;;;8.20;6.93;;;19.30;99.90;;;;;;5013570;28;20464;-52
2021/08/31 09:28:35;;;;;;;7.57;6.80;;;19.30;99.90;;;;;;5013246;28;20432;-51
2021/08/31 09:31:05;;;;;;;7.57;6.57;;;19.40;99.90;;;;;;5013495;28;20894;-51
2021/08/31 09:33:35;;;;;;;10.00;7.50;;;19.40;99.90;;;;;;5013875;28;20432;-51
2021/08/31 09:36:11;;;;;;;8.33;7.40;;;19.90;99.90;;;;;;5013356;28;20834;-52
2021/08/31 09:38:53;;;;;;;11.50;7.60;;;19.40;99.90;;;;;;5012737;28;20506;-52
2021/08/31 09:41:28;;;;;;;8.60;7.80;;;19.50;99.90;;;;;;5013535;28;20454;-52
2021/08/31 09:43:55;;;;;;;7.80;7.00;;;19.60;99.90;;;;;;5013257;28;20961;-52
2021/08/31 09:46:22;;;;;;;7.90;7.10;;;19.50;99.90;;;;;;5013187;28;20922;-52
2021/08/31 09:49:03;;;;;;;8.60;7.57;;;19.50;99.90;;;;;;5013470;28;20433;-52
2021/08/31 09:51:32;;;;;;;7.50;6.80;;;19.60;99.90;;;;;;5013402;28;20516;-51
2021/08/31 09:54:21;;;;;;;9.17;6.83;;;19.60;99.90;;;;;;5012990;28;20438;-51
2021/08/31 09:56:47;;;;;;;8.70;7.90;;;19.70;99.90;;;;;;5012774;28;20484;-51
2021/08/31 09:59:14;;;;;;;9.80;7.20;;;19.70;99.90;;;;;;5012402;28;20447;-52
2021/08/31 10:01:41;;;;;;;8.70;7.90;;;19.80;99.90;;;;;;5013317;28;21031;-51
2021/08/31 10:04:07;;;;;;;8.10;7.30;;;19.90;99.90;;;;;;5013150;28;20440;-51
2021/08/31 10:06:34;;;;;;;8.73;7.20;;;19.80;99.90;;;;;;5012586;28;20787;-51
2021/08/31 10:09:03;;;;;;;8.87;7.30;;;19.80;99.90;;;;;;5012365;28;20872;-51
2021/08/31 10:11:29;;;;;;;7.23;6.53;;;19.80;99.90;;;;;;5012915;28;20441;-51
2021/08/31 10:13:57;;;;;;;7.73;7.07;;;19.80;99.90;;;;;;5012604;28;20445;-51
2021/08/31 10:16:24;;;;;;;7.93;7.13;;;19.90;99.90;;;;;;5012650;28;20482;-51
2021/08/31 10:18:50;;;;;;;7.83;7.10;;;20.00;99.90;;;;;;5012646;28;20503;-51
2021/08/31 10:21:18;;;;;;;7.70;7.00;;;20.00;99.90;;;;;;5012746;28;20436;-52
2021/08/31 10:23:47;;;;;;;8.03;7.13;;;20.10;99.90;;;;;;5012273;28;20434;-51
2021/08/31 10:26:32;;;;;;;7.53;6.70;;;20.20;99.90;;;;;;5012288;28;20955;-51
2021/08/31 10:29:25;;;;;;;12.83;7.00;;;20.30;99.90;;;;;;5012242;28;20457;-51
2021/08/31 10:31:54;;;;;;;8.00;6.37;;;20.40;99.90;;;;;;5012689;28;20918;-52
2021/08/31 10:34:42;;;;;;;9.10;6.80;;;20.40;99.90;;;;;;5012994;28;20847;-52
2021/08/31 10:37:12;;;;;;;8.30;7.50;;;20.40;99.90;;;;;;5011889;28;20481;-51
2021/08/31 10:39:44;;;;;;;7.43;6.70;;;20.40;99.90;;;;;;5012704;28;20437;-51
2021/08/31 10:42:12;;;;;;;8.20;7.40;;;20.40;99.90;;;;;;5012321;28;20442;-51
2021/08/31 10:44:42;;;;;;;8.93;7.53;;;20.40;99.90;;;;;;5012322;28;20432;-52
2021/08/31 10:47:29;;;;;;;8.23;7.33;;;20.30;99.90;;;;;;5013011;28;20456;-52
2021/08/31 10:50:17;;;;;;;9.87;7.90;;;20.30;99.90;;;;;;5012036;28;20427;-52
2021/08/31 10:52:50;;;;;;;6.63;6.00;;;20.30;99.90;;;;;;5012205;28;20433;-52
2021/08/31 10:55:39;;;;;;;8.23;6.60;;;20.20;99.90;;;;;;5012236;28;20569;-51
2021/08/31 10:58:10;;;;;;;7.93;7.17;;;20.30;99.90;;;;;;5012146;28;20497;-52
2021/08/31 11:00:57;;;;;;;7.50;6.70;;;20.30;99.90;;;;;;5011823;28;20981;-52
2021/08/31 11:03:42;;;;;;;7.33;6.70;;;20.40;99.90;;;;;;5007295;28;21048;-52
2021/08/31 11:06:33;;;;;;;8.17;6.93;;;20.50;99.90;;;;;;5011997;28;20492;-52
2021/08/31 11:09:19;;;;;;;8.40;7.13;;;20.70;99.90;;;;;;5012212;28;20435;-52
2021/08/31 11:11:51;;;;;;;7.70;6.90;;;20.80;99.90;;;;;;5012093;28;20438;-52
2021/08/31 11:14:19;;;;;;;8.40;7.53;;;20.80;99.90;;;;;;5012473;28;20435;-52
2021/08/31 11:16:48;;;;;;;7.23;6.53;;;20.80;99.90;;;;;;5012108;28;20478;-52
2021/08/31 11:19:27;;;;;;;7.00;6.33;;;20.90;99.90;;;;;;5011396;28;20526;-52
2021/08/31 11:21:55;;;;;;;7.90;6.97;;;21.00;99.90;;;;;;5011063;28;20443;-52
2021/08/31 11:24:22;;;;;;;7.20;6.47;;;21.00;99.90;;;;;;5011083;28;20434;-52
2021/08/31 11:26:49;;;;;;;7.83;7.00;;;21.10;99.90;;;;;;5011008;28;21023;-53
2021/08/31 11:29:16;;;;;;;8.83;6.90;;;21.00;99.90;;;;;;5011249;28;20439;-52
2021/08/31 11:31:44;;;;;;;10.03;6.70;;;20.60;99.90;;;;;;5010350;28;20462;-52
2021/08/31 11:34:11;;;;;;;9.90;6.80;;;21.20;99.90;;;;;;5011272;28;20436;-53
2021/08/31 11:36:40;;;;;;;6.80;6.00;;;21.20;99.90;;;;;;5011834;28;20474;-53
2021/08/31 11:39:09;;;;;;;7.70;6.90;;;21.60;99.90;;;;;;5011147;28;20533;-52
2021/08/31 11:41:38;;;;;;;7.43;6.43;;;21.30;99.90;;;;;;5011379;28;20478;-52
2021/08/31 11:44:14;;;;;;;7.47;6.73;;;21.30;99.90;;;;;;5011245;28;20447;-52
2021/08/31 11:46:45;;;;;;;7.00;6.23;;;21.30;99.90;;;;;;5011347;28;20549;-52
2021/08/31 11:49:36;;;;;;;6.83;5.90;;;21.20;99.90;;;;;;5011259;28;20466;-52
2021/08/31 11:52:05;;;;;;;6.90;6.20;;;21.10;99.90;;;;;;5011147;28;20449;-52
2021/08/31 11:54:34;;;;;;;6.37;5.77;;;21.00;99.90;;;;;;5011522;28;20441;-52
2021/08/31 11:57:03;;;;;;;6.83;5.70;;;21.10;99.90;;;;;;5010935;28;20577;-52
2021/08/31 11:59:38;;;;;;;6.80;6.10;;;21.00;99.90;;;;;;5010606;28;20435;-53
2021/08/31 12:02:18;;;;;;;6.80;6.07;;;21.00;99.90;;;;;;5011198;28;20481;-52
2021/08/31 12:05:00;;;;;;;6.57;5.97;;;21.00;99.90;;;;;;5011121;28;20457;-52
2021/08/31 12:07:29;;;;;;;5.60;5.10;;;20.80;99.90;;;;;;5011138;28;20464;-52
2021/08/31 12:10:01;;;;;;;7.53;6.27;;;20.70;99.90;;;;;;5010649;28;20438;-52
2021/08/31 12:12:28;;;;;;;7.10;5.37;;;20.60;99.90;;;;;;5011153;28;20470;-52
2021/08/31 12:14:56;;;;;;;6.10;5.50;;;20.50;99.90;;;;;;5011880;28;20438;-52
2021/08/31 12:17:32;;;;;;;6.87;6.17;;;20.40;99.90;;;;;;5011726;28;20494;-52
2021/08/31 12:20:08;;;;;;;6.60;5.47;;;20.50;99.90;;;;;;5011033;28;20870;-52
2021/08/31 12:22:36;;;;;;;10.87;5.77;;;20.60;99.90;;;;;;5010697;28;20442;-52
2021/08/31 12:25:03;;;;;;;7.17;5.23;;;20.60;99.90;;;;;;5010944;28;20522;-52
2021/08/31 12:27:38;;;;;;;6.23;5.20;;;20.60;99.90;;;;;;5025232;23;20493;-54
2021/08/31 12:30:06;;;;;;;6.93;6.27;;;20.50;99.90;;;;;;5011283;28;20441;-53
2021/08/31 12:32:34;;;;;;;8.70;6.20;;;20.50;99.90;;;;;;5011023;28;20924;-52
2021/08/31 12:35:22;;;;;;;5.50;5.00;;;20.50;99.90;;;;;;5010919;28;20448;-53
2021/08/31 12:38:11;;;;;;;6.67;6.07;;;20.50;99.90;;;;;;5010868;28;20507;-54
2021/08/31 12:40:42;;;;;;;6.80;5.23;;;20.50;99.90;;;;;;5010991;28;20876;-53
2021/08/31 12:43:11;;;;;;;5.93;5.37;;;20.50;99.90;;;;;;5010702;28;20500;-54
2021/08/31 12:45:39;;;;;;;6.13;5.47;;;20.50;99.90;;;;;;5014089;28;20441;-54
2021/08/31 12:48:09;;;;;;;6.30;5.70;;;20.50;99.90;;;;;;5012304;28;20993;-53